createdAt,value
2024-02-13T00:01:22.664Z,4.20
2024-02-13T00:03:51.134Z,4.20
2024-02-13T00:06:19.335Z,4.20
2024-02-13T00:08:48.238Z,4.20
2024-02-13T00:11:17.118Z,4.20
2024-02-13T00:13:47.709Z,4.20
2024-02-13T00:16:19.351Z,4.20
2024-02-13T00:18:50.343Z,4.10
2024-02-13T00:21:18.747Z,4.10
2024-02-13T00:23:46.923Z,4.10
2024-02-13T00:26:15.120Z,4.10
2024-02-13T00:28:45.311Z,4.20
2024-02-13T00:31:13.444Z,4.20
2024-02-13T00:33:42.083Z,4.20
2024-02-13T00:36:12.522Z,4.20
2024-02-13T00:38:44.284Z,4.20
2024-02-13T00:41:12.542Z,4.20
2024-02-13T00:43:40.667Z,4.20
2024-02-13T00:46:10.777Z,4.20
2024-02-13T00:48:38.934Z,4.20
2024-02-13T00:51:07.067Z,4.20
2024-02-13T00:53:39.192Z,4.30
2024-02-13T00:56:09.307Z,4.20
2024-02-13T00:58:38.474Z,4.30
2024-02-13T01:01:06.827Z,4.20
2024-02-13T01:03:37.764Z,4.20
2024-02-13T01:06:07.941Z,4.30
2024-02-13T01:08:38.932Z,4.30
2024-02-13T01:11:08.756Z,4.30
2024-02-13T01:13:37.151Z,4.30
2024-02-13T01:16:05.854Z,4.30
2024-02-13T01:18:34.052Z,4.30
2024-02-13T01:21:02.227Z,4.40
2024-02-13T01:23:30.324Z,4.30
2024-02-13T01:26:00.565Z,4.30
2024-02-13T01:28:29.323Z,4.30
2024-02-13T01:30:59.639Z,4.30
2024-02-13T01:33:28.214Z,4.30
2024-02-13T01:35:57.323Z,4.40
2024-02-13T01:38:27.259Z,4.40
2024-02-13T01:40:55.406Z,4.40
2024-02-13T01:43:26.468Z,4.30
2024-02-13T01:45:55.201Z,4.30
2024-02-13T01:48:24.004Z,4.30
2024-02-13T01:50:52.245Z,4.30
2024-02-13T01:53:22.432Z,4.30
2024-02-13T01:55:51.472Z,4.20
2024-02-13T01:58:20.566Z,4.10
2024-02-13T02:00:51.039Z,4.20
2024-02-13T02:03:20.302Z,4.10
2024-02-13T02:05:48.491Z,4.20
2024-02-13T02:08:16.720Z,4.20
2024-02-13T02:10:45.801Z,4.20
2024-02-13T02:13:15.940Z,4.20
2024-02-13T02:15:44.113Z,4.20
2024-02-13T02:18:14.634Z,4.20
2024-02-13T02:20:42.943Z,4.20
2024-02-13T02:23:11.133Z,4.20
2024-02-13T02:25:40.789Z,4.20
2024-02-13T02:28:09.533Z,4.10
2024-02-13T02:30:37.638Z,4.10
2024-02-13T02:33:06.475Z,4.10
2024-02-13T02:35:35.029Z,4.10
2024-02-13T02:38:03.774Z,4.10
2024-02-13T02:40:31.893Z,4.10
2024-02-13T02:43:02.359Z,4.20
2024-02-13T02:45:30.503Z,4.20
2024-02-13T02:47:59.062Z,4.20
2024-02-13T02:50:27.261Z,4.20
2024-02-13T02:52:55.391Z,4.30
2024-02-13T02:55:24.092Z,4.20
2024-02-13T02:57:54.161Z,4.30
2024-02-13T03:00:24.069Z,4.30
2024-02-13T03:02:52.387Z,4.30
2024-02-13T03:05:20.690Z,4.40
2024-02-13T03:07:48.943Z,4.40
2024-02-13T03:10:17.128Z,4.40
2024-02-13T03:12:45.818Z,4.40
2024-02-13T03:15:14.138Z,4.30
2024-02-13T03:17:44.954Z,4.30
2024-02-13T03:20:14.069Z,4.40
2024-02-13T03:22:43.388Z,4.40
2024-02-13T03:25:11.721Z,4.20
2024-02-13T03:27:39.954Z,4.20
2024-02-13T03:30:11.064Z,4.20
2024-02-13T03:32:39.314Z,4.20
2024-02-13T03:35:09.663Z,4.10
2024-02-13T03:37:37.801Z,4.10
2024-02-13T03:40:07.945Z,4.00
2024-02-13T03:42:37.560Z,4.00
2024-02-13T03:45:06.541Z,4.00
2024-02-13T03:47:35.739Z,3.90
2024-02-13T03:50:04.210Z,3.90
2024-02-13T03:52:35.200Z,3.90
2024-02-13T03:55:05.976Z,4.00
2024-02-13T03:57:34.040Z,4.00
2024-02-13T04:00:02.261Z,4.10
2024-02-13T04:02:34.435Z,4.10
2024-02-13T04:05:02.589Z,4.10
2024-02-13T04:07:30.681Z,4.20
2024-02-13T04:10:00.406Z,4.20
2024-02-13T04:12:28.488Z,4.20
2024-02-13T04:14:57.251Z,4.20
2024-02-13T04:17:26.283Z,4.20
2024-02-13T04:19:54.746Z,4.10
2024-02-13T04:22:22.900Z,4.20
2024-02-13T04:24:51.310Z,4.20
2024-02-13T04:27:22.383Z,4.20
2024-02-13T04:29:50.870Z,4.20
2024-02-13T04:32:19.291Z,4.30
2024-02-13T04:34:47.613Z,4.30
2024-02-13T04:37:16.013Z,4.20
2024-02-13T04:39:44.093Z,4.20
2024-02-13T04:42:13.334Z,4.30
2024-02-13T04:44:42.803Z,4.20
2024-02-13T04:47:10.908Z,4.20
2024-02-13T04:49:38.994Z,4.20
2024-02-13T04:52:07.808Z,4.20
2024-02-13T04:54:35.913Z,4.20
2024-02-13T04:57:05.072Z,4.20
2024-02-13T04:59:38.998Z,4.20
2024-02-13T05:02:09.918Z,4.20
2024-02-13T05:04:55.674Z,4.20
2024-02-13T05:07:24.887Z,4.10
2024-02-13T05:09:54.309Z,4.10
2024-02-13T05:12:22.415Z,4.10
2024-02-13T05:14:50.605Z,4.00
2024-02-13T05:17:20.091Z,4.00
2024-02-13T05:19:49.843Z,3.90
2024-02-13T05:22:18.138Z,3.90
2024-02-13T05:24:46.279Z,3.90
2024-02-13T05:27:14.495Z,3.80
2024-02-13T05:29:43.144Z,3.80
2024-02-13T05:32:11.449Z,3.80
2024-02-13T05:34:41.130Z,3.70
2024-02-13T05:37:10.368Z,3.60
2024-02-13T05:39:38.599Z,3.50
2024-02-13T05:42:06.884Z,3.50
2024-02-13T05:44:35.026Z,3.50
2024-02-13T05:47:04.202Z,3.50
2024-02-13T05:49:34.155Z,3.50
2024-02-13T05:52:03.953Z,3.50
2024-02-13T05:54:32.225Z,3.60
2024-02-13T05:57:00.456Z,3.60
2024-02-13T05:59:31.326Z,3.50
2024-02-13T06:01:59.627Z,3.50
2024-02-13T06:04:28.525Z,3.60
2024-02-13T06:06:57.001Z,3.50
2024-02-13T06:09:26.613Z,3.50
2024-02-13T06:11:54.975Z,3.50
2024-02-13T06:14:23.462Z,3.50
2024-02-13T06:16:51.631Z,3.40
2024-02-13T06:19:20.298Z,3.40
2024-02-13T06:21:48.430Z,3.50
2024-02-13T06:24:16.533Z,3.50
2024-02-13T06:26:50.696Z,3.50
2024-02-13T06:29:20.058Z,3.50
2024-02-13T06:31:49.480Z,3.50
2024-02-13T06:34:18.927Z,3.50
2024-02-13T06:36:47.153Z,3.50
2024-02-13T06:39:15.263Z,3.50
2024-02-13T06:41:43.396Z,3.50
2024-02-13T06:44:12.958Z,3.50
2024-02-13T06:46:41.895Z,3.50
2024-02-13T06:49:10.225Z,3.50
2024-02-13T06:51:38.321Z,3.60
2024-02-13T06:54:06.646Z,3.60
2024-02-13T06:56:39.233Z,3.60
2024-02-13T06:59:09.037Z,3.70
2024-02-13T07:01:38.608Z,3.70
2024-02-13T07:04:07.790Z,3.80
2024-02-13T07:06:44.015Z,3.70
2024-02-13T07:09:24.230Z,3.80
2024-02-13T07:11:53.166Z,3.80
2024-02-13T07:14:24.139Z,3.90
2024-02-13T07:16:54.490Z,4.00
2024-02-13T07:19:22.724Z,4.10
2024-02-13T07:21:50.900Z,4.10
2024-02-13T07:24:18.982Z,4.20
2024-02-13T07:26:47.333Z,4.20
2024-02-13T07:29:16.891Z,4.20
2024-02-13T07:31:45.007Z,4.30
2024-02-13T07:34:14.948Z,4.40
2024-02-13T07:36:43.267Z,4.40
2024-02-13T07:39:12.225Z,4.30
2024-02-13T07:41:40.369Z,4.40
2024-02-13T07:44:08.511Z,4.60
2024-02-13T07:46:37.301Z,4.50
2024-02-13T07:49:05.482Z,4.60
2024-02-13T07:51:34.999Z,4.60
2024-02-13T07:54:03.097Z,4.70
2024-02-13T07:56:31.220Z,4.80
2024-02-13T07:58:59.464Z,4.80
2024-02-13T08:01:28.212Z,4.80
2024-02-13T08:03:56.590Z,4.90
2024-02-13T08:06:24.875Z,4.90
2024-02-13T08:08:54.432Z,4.90
2024-02-13T08:11:23.251Z,5.00
2024-02-13T08:13:51.445Z,5.00
2024-02-13T08:16:20.220Z,5.00
2024-02-13T08:18:51.809Z,5.10
2024-02-13T08:21:20.247Z,5.00
2024-02-13T08:23:48.462Z,5.10
2024-02-13T08:26:18.021Z,5.20
2024-02-13T08:28:46.328Z,5.20
2024-02-13T08:31:14.582Z,5.20
2024-02-13T08:33:43.023Z,5.30
2024-02-13T08:36:12.771Z,5.40
2024-02-13T08:38:43.188Z,5.40
2024-02-13T08:41:13.832Z,5.50
2024-02-13T08:43:43.439Z,5.50
2024-02-13T08:46:11.891Z,5.50
2024-02-13T08:48:40.139Z,5.60
2024-02-13T08:51:08.511Z,5.70
2024-02-13T08:53:36.898Z,5.80
2024-02-13T08:56:05.799Z,5.80
2024-02-13T08:58:33.957Z,6.00
2024-02-13T09:01:03.574Z,5.80
2024-02-13T09:03:31.704Z,5.70
2024-02-13T09:06:02.187Z,5.90
2024-02-13T09:08:30.996Z,6.10
2024-02-13T09:10:59.128Z,6.20
2024-02-13T09:13:28.712Z,6.40
2024-02-13T09:15:57.151Z,6.40
2024-02-13T09:18:26.731Z,6.70
2024-02-13T09:20:55.423Z,6.70
2024-02-13T09:23:25.542Z,7.00
2024-02-13T09:25:53.688Z,7.10
2024-02-13T09:28:22.853Z,7.00
2024-02-13T09:30:51.721Z,6.80
2024-02-13T09:33:21.679Z,7.00
2024-02-13T09:35:52.128Z,7.20
2024-02-13T09:38:20.640Z,7.50
2024-02-13T09:40:50.017Z,7.50
2024-02-13T09:43:19.255Z,7.90
2024-02-13T09:45:47.568Z,7.90
2024-02-13T09:48:21.113Z,7.60
2024-02-13T09:50:51.759Z,7.60
2024-02-13T09:53:23.487Z,7.90
2024-02-13T09:55:51.621Z,7.90
2024-02-13T09:58:19.930Z,8.00
2024-02-13T10:00:48.562Z,8.20
2024-02-13T10:03:17.528Z,8.50
2024-02-13T10:05:45.745Z,8.70
2024-02-13T10:08:17.221Z,8.20
2024-02-13T10:10:46.087Z,8.40
2024-02-13T10:13:14.402Z,8.40
2024-02-13T10:15:44.066Z,8.50
2024-02-13T10:18:14.324Z,8.50
2024-02-13T10:20:42.578Z,8.60
2024-02-13T10:23:16.565Z,8.50
2024-02-13T10:25:45.144Z,8.60
2024-02-13T10:28:13.405Z,8.60
2024-02-13T10:30:41.523Z,8.80
2024-02-13T10:33:09.896Z,8.70
2024-02-13T10:35:38.754Z,8.80
2024-02-13T10:38:08.833Z,8.90
2024-02-13T10:40:40.803Z,9.10
2024-02-13T10:43:13.474Z,9.10
2024-02-13T10:45:41.832Z,9.00
2024-02-13T10:48:14.665Z,9.30
2024-02-13T10:50:43.388Z,9.40
2024-02-13T10:53:12.721Z,9.30
2024-02-13T10:55:44.182Z,9.50
2024-02-13T10:58:24.036Z,9.50
2024-02-13T11:00:57.050Z,9.30
2024-02-13T11:03:25.334Z,9.40
2024-02-13T11:05:53.672Z,9.50
2024-02-13T11:08:22.050Z,9.40
2024-02-13T11:10:51.548Z,9.30
2024-02-13T11:13:21.689Z,9.10
2024-02-13T11:15:50.265Z,9.30
2024-02-13T11:18:18.661Z,9.40
2024-02-13T11:20:47.534Z,9.40
2024-02-13T11:23:17.322Z,9.70
2024-02-13T11:25:58.417Z,10.10
2024-02-13T11:28:32.871Z,10.50
2024-02-13T11:31:00.954Z,10.50
2024-02-13T11:33:30.049Z,9.90
2024-02-13T11:36:00.211Z,10.00
2024-02-13T11:38:30.561Z,10.60
2024-02-13T11:41:00.670Z,10.80
2024-02-13T11:43:29.402Z,10.70
2024-02-13T11:45:58.705Z,10.50
2024-02-13T11:48:31.677Z,10.50
2024-02-13T11:51:04.106Z,10.40
2024-02-13T11:53:33.034Z,10.60
2024-02-13T11:56:02.508Z,10.60
2024-02-13T11:58:32.791Z,10.80
2024-02-13T12:01:02.421Z,10.90
2024-02-13T12:03:30.667Z,11.00
2024-02-13T12:05:59.108Z,10.50
2024-02-13T12:08:29.072Z,9.90
2024-02-13T12:10:59.052Z,10.20
2024-02-13T12:13:28.855Z,10.00
2024-02-13T12:15:58.766Z,10.10
2024-02-13T12:18:28.967Z,10.20
2024-02-13T12:20:58.195Z,10.70
2024-02-13T12:23:27.234Z,10.70
2024-02-13T12:26:01.802Z,10.70
2024-02-13T12:28:31.364Z,10.70
2024-02-13T12:31:00.488Z,10.80
2024-02-13T12:33:30.104Z,10.60
2024-02-13T12:36:02.589Z,10.50
2024-02-13T12:38:32.667Z,10.70
2024-02-13T12:41:00.980Z,10.90
2024-02-13T12:43:29.769Z,10.80
2024-02-13T12:46:00.063Z,10.80
2024-02-13T12:48:35.250Z,10.40
2024-02-13T12:51:10.646Z,10.50
2024-02-13T12:53:41.055Z,10.70
2024-02-13T12:56:10.686Z,10.60
2024-02-13T12:58:39.298Z,10.60
2024-02-13T13:01:11.317Z,10.70
2024-02-13T13:03:40.257Z,10.60
2024-02-13T13:06:12.788Z,10.40
2024-02-13T13:08:41.945Z,10.10
2024-02-13T13:11:10.142Z,10.10
2024-02-13T13:13:39.982Z,10.20
2024-02-13T13:16:09.599Z,10.00
2024-02-13T13:18:40.019Z,10.20
2024-02-13T13:21:09.377Z,10.40
2024-02-13T13:23:39.214Z,10.40
2024-02-13T13:26:09.819Z,10.20
2024-02-13T13:28:39.596Z,10.00
2024-02-13T13:31:13.204Z,10.00
2024-02-13T13:33:41.456Z,9.80
2024-02-13T13:36:10.002Z,10.00
2024-02-13T13:38:39.686Z,10.30
2024-02-13T13:41:08.522Z,10.30
2024-02-13T13:43:36.686Z,10.30
2024-02-13T13:46:05.260Z,10.00
2024-02-13T13:48:36.114Z,10.00
2024-02-13T13:51:04.946Z,10.00
2024-02-13T13:53:33.266Z,10.00
2024-02-13T13:56:01.483Z,10.10
2024-02-13T13:58:30.959Z,10.10
2024-02-13T14:00:59.077Z,10.30
2024-02-13T14:03:27.184Z,10.30
2024-02-13T14:05:56.766Z,10.10
2024-02-13T14:08:24.968Z,10.20
2024-02-13T14:10:53.831Z,9.90
2024-02-13T14:13:21.919Z,10.00
2024-02-13T14:15:50.889Z,9.90
2024-02-13T14:18:19.517Z,9.90
2024-02-13T14:20:47.801Z,9.90
2024-02-13T14:23:18.254Z,10.00
2024-02-13T14:25:46.385Z,10.00
2024-02-13T14:28:14.719Z,10.10
2024-02-13T14:30:43.037Z,10.10
2024-02-13T14:33:12.997Z,9.90
2024-02-13T14:35:43.563Z,10.00
2024-02-13T14:38:12.652Z,10.00
2024-02-13T14:40:42.262Z,9.80
2024-02-13T14:43:12.248Z,9.70
2024-02-13T14:45:42.150Z,9.60
2024-02-13T14:48:10.737Z,9.70
2024-02-13T14:50:39.894Z,9.80
2024-02-13T14:53:09.668Z,9.80
2024-02-13T14:55:39.894Z,9.70
2024-02-13T14:58:19.265Z,9.60
2024-02-13T15:00:56.480Z,9.60
2024-02-13T15:03:25.513Z,9.60
2024-02-13T15:05:54.663Z,9.40
2024-02-13T15:08:23.846Z,9.30
2024-02-13T15:10:52.019Z,9.10
2024-02-13T15:13:21.689Z,9.20
2024-02-13T15:15:52.408Z,9.10
2024-02-13T15:18:23.327Z,9.10
2024-02-13T15:20:51.684Z,9.10
2024-02-13T15:23:19.964Z,8.90
2024-02-13T15:25:48.488Z,8.70
2024-02-13T15:28:17.194Z,8.70
2024-02-13T15:30:47.913Z,8.70
2024-02-13T15:33:16.192Z,8.70
2024-02-13T15:35:53.265Z,8.60
2024-02-13T15:38:39.417Z,8.70
2024-02-13T15:41:25.159Z,8.70
2024-02-13T15:44:10.822Z,8.70
2024-02-13T15:46:57.938Z,8.70
2024-02-13T15:49:26.168Z,8.70
2024-02-13T15:51:54.331Z,8.70
2024-02-13T15:54:22.471Z,8.60
2024-02-13T15:56:51.156Z,8.60
2024-02-13T15:59:19.880Z,8.50
2024-02-13T16:01:49.410Z,8.50
2024-02-13T16:04:19.617Z,8.50
2024-02-13T16:06:48.473Z,8.50
2024-02-13T16:09:16.761Z,8.40
2024-02-13T16:11:44.897Z,8.30
2024-02-13T16:14:13.703Z,8.40
2024-02-13T16:16:41.832Z,8.30
2024-02-13T16:19:11.365Z,8.20
2024-02-13T16:21:39.491Z,8.20
2024-02-13T16:24:08.295Z,8.10
2024-02-13T16:26:36.655Z,8.10
2024-02-13T16:29:04.879Z,8.10
2024-02-13T16:31:33.112Z,8.10
2024-02-13T16:34:01.799Z,8.10
2024-02-13T16:36:31.717Z,8.00
2024-02-13T16:38:59.887Z,8.00
2024-02-13T16:41:28.039Z,7.90
2024-02-13T16:43:56.133Z,7.90
2024-02-13T16:46:25.587Z,7.90
2024-02-13T16:48:55.087Z,7.80
2024-02-13T16:51:24.309Z,7.80
2024-02-13T16:53:55.454Z,7.80
2024-02-13T16:56:25.961Z,7.80
2024-02-13T16:58:54.133Z,7.70
2024-02-13T17:01:22.430Z,7.70
2024-02-13T17:03:50.582Z,7.70
2024-02-13T17:06:18.822Z,7.70
2024-02-13T17:08:47.649Z,7.70
2024-02-13T17:11:17.126Z,7.60
2024-02-13T17:13:46.375Z,7.60
2024-02-13T17:16:16.095Z,7.60
2024-02-13T17:18:44.409Z,7.60
2024-02-13T17:21:12.763Z,7.50
2024-02-13T17:23:40.949Z,7.50
2024-02-13T17:26:09.328Z,7.50
2024-02-13T17:28:39.873Z,7.40
2024-02-13T17:31:07.972Z,7.40
2024-02-13T17:33:36.222Z,7.40
2024-02-13T17:36:04.789Z,7.40
2024-02-13T17:38:35.909Z,7.40
2024-02-13T17:41:05.988Z,7.40
2024-02-13T17:43:34.508Z,7.40
2024-02-13T17:46:03.968Z,7.30
2024-02-13T17:48:32.165Z,7.30
2024-02-13T17:51:00.402Z,7.30
2024-02-13T17:53:28.557Z,7.30
2024-02-13T17:55:56.699Z,7.30
2024-02-13T17:58:24.781Z,7.30
2024-02-13T18:00:54.228Z,7.20
2024-02-13T18:03:23.794Z,7.20
2024-02-13T18:05:52.517Z,7.20
2024-02-13T18:08:20.724Z,7.20
2024-02-13T18:10:48.997Z,7.20
2024-02-13T18:13:17.085Z,7.10
2024-02-13T18:15:45.683Z,7.10
2024-02-13T18:18:13.867Z,7.10
2024-02-13T18:20:43.546Z,7.10
2024-02-13T18:23:13.712Z,7.10
2024-02-13T18:25:42.285Z,7.10
2024-02-13T18:28:14.500Z,7.10
2024-02-13T18:30:42.681Z,7.10
2024-02-13T18:33:10.895Z,7.10
2024-02-13T18:35:41.055Z,7.00
2024-02-13T18:38:10.710Z,7.00
2024-02-13T18:40:38.859Z,7.00
2024-02-13T18:43:06.982Z,7.00
2024-02-13T18:45:35.078Z,7.00
2024-02-13T18:48:05.151Z,7.00
2024-02-13T18:50:34.046Z,7.00
2024-02-13T18:53:02.139Z,7.00
2024-02-13T18:55:33.247Z,7.00
2024-02-13T18:58:01.318Z,6.90
2024-02-13T19:00:29.792Z,7.00
2024-02-13T19:02:58.010Z,6.90
2024-02-13T19:05:26.220Z,6.90
2024-02-13T19:07:54.373Z,6.90
2024-02-13T19:10:22.589Z,6.90
2024-02-13T19:12:52.050Z,6.90
2024-02-13T19:15:21.052Z,6.90
2024-02-13T19:17:49.907Z,6.90
2024-02-13T19:20:19.614Z,6.80
2024-02-13T19:22:50.271Z,6.80
2024-02-13T19:25:18.435Z,6.80
2024-02-13T19:27:46.792Z,6.80
2024-02-13T19:30:16.413Z,6.80
2024-02-13T19:32:44.639Z,6.70
2024-02-13T19:35:12.813Z,6.70
2024-02-13T19:37:40.912Z,6.70
2024-02-13T19:40:10.590Z,6.80
2024-02-13T19:42:38.769Z,6.70
2024-02-13T19:45:07.853Z,6.70
2024-02-13T19:47:37.549Z,6.70
2024-02-13T19:50:06.492Z,6.70
2024-02-13T19:52:36.443Z,6.60
2024-02-13T19:55:07.055Z,6.60
2024-02-13T19:57:35.569Z,6.70
2024-02-13T20:00:04.941Z,6.60
2024-02-13T20:02:33.442Z,6.60
2024-02-13T20:05:03.529Z,6.60
2024-02-13T20:07:31.821Z,6.60
2024-02-13T20:10:00.265Z,6.50
2024-02-13T20:12:28.349Z,6.50
2024-02-13T20:14:57.152Z,6.50
2024-02-13T20:17:25.312Z,6.50
2024-02-13T20:19:53.662Z,6.40
2024-02-13T20:22:23.126Z,6.50
2024-02-13T20:24:51.243Z,6.40
2024-02-13T20:27:19.386Z,6.40
2024-02-13T20:29:47.645Z,6.40
2024-02-13T20:32:15.867Z,6.40
2024-02-13T20:34:44.244Z,6.30
2024-02-13T20:37:12.433Z,6.30
2024-02-13T20:39:42.951Z,6.20
2024-02-13T20:42:11.098Z,6.20
2024-02-13T20:44:40.932Z,6.10
2024-02-13T20:47:09.270Z,6.10
2024-02-13T20:49:37.641Z,6.00
2024-02-13T20:52:06.372Z,6.00
2024-02-13T20:54:34.540Z,6.00
2024-02-13T20:57:05.573Z,5.90
2024-02-13T20:59:34.997Z,5.90
2024-02-13T21:02:04.155Z,5.80
2024-02-13T21:04:32.411Z,5.80
2024-02-13T21:07:01.254Z,5.70
2024-02-13T21:09:29.456Z,5.70
2024-02-13T21:11:57.582Z,5.70
2024-02-13T21:14:27.073Z,5.50
2024-02-13T21:16:55.198Z,5.50
2024-02-13T21:19:24.103Z,5.40
2024-02-13T21:22:09.834Z,5.30
2024-02-13T21:24:37.987Z,5.30
2024-02-13T21:27:07.014Z,5.20
2024-02-13T21:29:37.282Z,5.10
2024-02-13T21:32:06.054Z,5.10
2024-02-13T21:34:35.327Z,5.10
2024-02-13T21:37:03.516Z,5.00
2024-02-13T21:39:33.281Z,5.00
2024-02-13T21:42:01.503Z,4.90
2024-02-13T21:44:29.738Z,4.90
2024-02-13T21:47:00.375Z,4.90
2024-02-13T21:49:28.625Z,4.90
2024-02-13T21:51:56.971Z,4.80
2024-02-13T21:54:25.051Z,4.80
2024-02-13T21:56:53.550Z,4.80
2024-02-13T21:59:21.925Z,4.70
2024-02-13T22:01:50.100Z,4.60
2024-02-13T22:04:19.605Z,4.60
2024-02-13T22:06:47.822Z,4.60
2024-02-13T22:09:15.990Z,4.50
2024-02-13T22:11:44.215Z,4.50
2024-02-13T22:14:12.346Z,4.40
2024-02-13T22:16:41.313Z,4.40
2024-02-13T22:19:09.528Z,4.30
2024-02-13T22:21:39.085Z,4.30
2024-02-13T22:24:08.006Z,4.20
2024-02-13T22:26:39.371Z,4.20
2024-02-13T22:29:09.019Z,4.10
2024-02-13T22:31:37.117Z,4.10
2024-02-13T22:34:06.750Z,4.00
2024-02-13T22:36:35.158Z,4.00
2024-02-13T22:39:04.933Z,3.90
2024-02-13T22:41:33.094Z,3.90
2024-02-13T22:44:04.339Z,3.90
2024-02-13T22:46:32.538Z,3.80
2024-02-13T22:49:00.711Z,3.80
2024-02-13T22:51:28.882Z,3.70
2024-02-13T22:53:57.057Z,3.70
2024-02-13T22:56:26.594Z,3.70
2024-02-13T22:58:56.583Z,3.70
2024-02-13T23:01:25.707Z,3.60
2024-02-13T23:03:53.885Z,3.60
2024-02-13T23:06:23.000Z,3.50
2024-02-13T23:08:51.227Z,3.50
2024-02-13T23:11:19.428Z,3.50
2024-02-13T23:13:51.246Z,3.40
2024-02-13T23:16:20.467Z,3.40
2024-02-13T23:18:49.244Z,3.30
2024-02-13T23:21:17.569Z,3.30
2024-02-13T23:23:46.220Z,3.30
2024-02-13T23:26:14.419Z,3.30
2024-02-13T23:28:49.303Z,3.20
2024-02-13T23:31:25.944Z,3.20
2024-02-13T23:33:55.211Z,3.20
2024-02-13T23:36:24.029Z,3.10
2024-02-13T23:38:52.774Z,3.10
2024-02-13T23:41:20.998Z,3.00
2024-02-13T23:43:49.091Z,3.00
2024-02-13T23:46:20.582Z,2.90
2024-02-13T23:48:51.426Z,3.00
2024-02-13T23:51:19.739Z,2.90
2024-02-13T23:53:50.304Z,2.80
2024-02-13T23:56:19.341Z,2.80
2024-02-13T23:58:48.084Z,2.70
